sensor_id;sensor_type;location;lat;lon;timestamp;temperature;humidity
38941;DHT22;43236;47.208;7.518;2024-01-16T00:00:14;5.00;79.60
38941;DHT22;43236;47.208;7.518;2024-01-16T00:03:02;5.00;79.90
38941;DHT22;43236;47.208;7.518;2024-01-16T00:05:50;5.00;79.90
38941;DHT22;43236;47.208;7.518;2024-01-16T00:08:37;5.00;80.80
38941;DHT22;43236;47.208;7.518;2024-01-16T00:11:24;5.00;80.00
38941;DHT22;43236;47.208;7.518;2024-01-16T00:14:11;5.00;80.10
38941;DHT22;43236;47.208;7.518;2024-01-16T00:16:59;5.10;80.10
38941;DHT22;43236;47.208;7.518;2024-01-16T00:19:46;5.10;79.80
38941;DHT22;43236;47.208;7.518;2024-01-16T00:22:33;5.10;80.20
38941;DHT22;43236;47.208;7.518;2024-01-16T00:25:22;5.10;80.00
38941;DHT22;43236;47.208;7.518;2024-01-16T00:28:09;5.10;79.90
38941;DHT22;43236;47.208;7.518;2024-01-16T00:30:57;5.10;79.40
38941;DHT22;43236;47.208;7.518;2024-01-16T00:33:48;5.10;79.30
38941;DHT22;43236;47.208;7.518;2024-01-16T00:36:35;5.00;79.00
38941;DHT22;43236;47.208;7.518;2024-01-16T00:39:23;5.00;79.30
38941;DHT22;43236;47.208;7.518;2024-01-16T00:42:10;5.00;79.20
38941;DHT22;43236;47.208;7.518;2024-01-16T00:45:00;4.90;78.90
38941;DHT22;43236;47.208;7.518;2024-01-16T00:47:49;4.90;79.10
38941;DHT22;43236;47.208;7.518;2024-01-16T00:50:37;4.90;78.90
38941;DHT22;43236;47.208;7.518;2024-01-16T00:53:25;4.90;79.40
38941;DHT22;43236;47.208;7.518;2024-01-16T00:56:14;4.80;79.40
38941;DHT22;43236;47.208;7.518;2024-01-16T00:59:01;4.80;79.30
38941;DHT22;43236;47.208;7.518;2024-01-16T01:01:48;4.80;79.30
38941;DHT22;43236;47.208;7.518;2024-01-16T01:04:41;4.70;79.60
38941;DHT22;43236;47.208;7.518;2024-01-16T01:07:30;4.70;79.40
38941;DHT22;43236;47.208;7.518;2024-01-16T01:10:17;4.60;80.00
38941;DHT22;43236;47.208;7.518;2024-01-16T01:13:04;4.60;80.00
38941;DHT22;43236;47.208;7.518;2024-01-16T01:15:51;4.60;80.20
38941;DHT22;43236;47.208;7.518;2024-01-16T01:18:40;4.60;80.00
38941;DHT22;43236;47.208;7.518;2024-01-16T01:21:27;4.60;79.70
38941;DHT22;43236;47.208;7.518;2024-01-16T01:24:16;4.50;79.70
38941;DHT22;43236;47.208;7.518;2024-01-16T01:27:03;4.50;79.70
38941;DHT22;43236;47.208;7.518;2024-01-16T01:29:51;4.40;79.40
38941;DHT22;43236;47.208;7.518;2024-01-16T01:32:39;4.40;80.40
38941;DHT22;43236;47.208;7.518;2024-01-16T01:35:26;4.30;80.20
38941;DHT22;43236;47.208;7.518;2024-01-16T01:38:13;4.30;79.90
38941;DHT22;43236;47.208;7.518;2024-01-16T01:41:01;4.40;80.00
38941;DHT22;43236;47.208;7.518;2024-01-16T01:43:48;4.40;79.80
38941;DHT22;43236;47.208;7.518;2024-01-16T01:46:35;4.30;79.30
38941;DHT22;43236;47.208;7.518;2024-01-16T01:49:23;4.40;80.00
38941;DHT22;43236;47.208;7.518;2024-01-16T01:52:13;4.30;79.70
38941;DHT22;43236;47.208;7.518;2024-01-16T01:55:00;4.40;79.30
38941;DHT22;43236;47.208;7.518;2024-01-16T01:57:50;4.30;79.60
38941;DHT22;43236;47.208;7.518;2024-01-16T02:00:37;4.30;79.60
38941;DHT22;43236;47.208;7.518;2024-01-16T02:03:26;4.30;79.50
38941;DHT22;43236;47.208;7.518;2024-01-16T02:06:14;4.30;79.80
38941;DHT22;43236;47.208;7.518;2024-01-16T02:09:02;4.30;79.90
38941;DHT22;43236;47.208;7.518;2024-01-16T02:11:52;4.30;79.60
38941;DHT22;43236;47.208;7.518;2024-01-16T02:14:41;4.20;80.00
38941;DHT22;43236;47.208;7.518;2024-01-16T02:17:28;4.20;79.70
38941;DHT22;43236;47.208;7.518;2024-01-16T02:20:15;4.10;79.50
38941;DHT22;43236;47.208;7.518;2024-01-16T02:23:03;4.10;79.60
38941;DHT22;43236;47.208;7.518;2024-01-16T02:25:52;4.10;80.20
38941;DHT22;43236;47.208;7.518;2024-01-16T02:28:39;4.10;80.20
38941;DHT22;43236;47.208;7.518;2024-01-16T02:31:26;4.00;80.10
38941;DHT22;43236;47.208;7.518;2024-01-16T02:34:13;4.00;80.10
38941;DHT22;43236;47.208;7.518;2024-01-16T02:37:00;4.00;80.10
38941;DHT22;43236;47.208;7.518;2024-01-16T02:39:47;4.00;79.80
38941;DHT22;43236;47.208;7.518;2024-01-16T02:42:36;3.90;79.40
38941;DHT22;43236;47.208;7.518;2024-01-16T02:45:24;3.90;80.10
38941;DHT22;43236;47.208;7.518;2024-01-16T02:48:15;3.90;80.00
38941;DHT22;43236;47.208;7.518;2024-01-16T02:51:02;3.90;80.20
38941;DHT22;43236;47.208;7.518;2024-01-16T02:53:49;3.90;79.50
38941;DHT22;43236;47.208;7.518;2024-01-16T02:56:36;3.90;79.70
38941;DHT22;43236;47.208;7.518;2024-01-16T02:59:24;3.90;79.50
38941;DHT22;43236;47.208;7.518;2024-01-16T03:02:14;3.90;79.60
38941;DHT22;43236;47.208;7.518;2024-01-16T03:05:02;3.90;79.70
38941;DHT22;43236;47.208;7.518;2024-01-16T03:07:50;3.90;79.80
38941;DHT22;43236;47.208;7.518;2024-01-16T03:10:37;3.90;79.80
38941;DHT22;43236;47.208;7.518;2024-01-16T03:13:25;3.90;79.50
38941;DHT22;43236;47.208;7.518;2024-01-16T03:16:13;3.90;79.60
38941;DHT22;43236;47.208;7.518;2024-01-16T03:19:00;3.80;79.70
38941;DHT22;43236;47.208;7.518;2024-01-16T03:21:47;3.80;79.60
38941;DHT22;43236;47.208;7.518;2024-01-16T03:24:34;3.80;79.30
38941;DHT22;43236;47.208;7.518;2024-01-16T03:27:21;3.80;79.40
38941;DHT22;43236;47.208;7.518;2024-01-16T03:30:09;3.80;79.40
38941;DHT22;43236;47.208;7.518;2024-01-16T03:32:57;3.80;79.50
38941;DHT22;43236;47.208;7.518;2024-01-16T03:35:47;3.80;79.40
38941;DHT22;43236;47.208;7.518;2024-01-16T03:38:34;3.80;79.80
38941;DHT22;43236;47.208;7.518;2024-01-16T03:41:22;3.70;79.60
38941;DHT22;43236;47.208;7.518;2024-01-16T03:44:09;3.70;79.40
38941;DHT22;43236;47.208;7.518;2024-01-16T03:46:56;3.60;79.10
38941;DHT22;43236;47.208;7.518;2024-01-16T03:49:44;3.60;79.70
38941;DHT22;43236;47.208;7.518;2024-01-16T03:52:32;3.60;79.60
38941;DHT22;43236;47.208;7.518;2024-01-16T03:55:21;3.50;79.10
38941;DHT22;43236;47.208;7.518;2024-01-16T03:58:08;3.40;79.60
38941;DHT22;43236;47.208;7.518;2024-01-16T04:00:55;3.50;79.90
38941;DHT22;43236;47.208;7.518;2024-01-16T04:03:42;3.50;79.90
38941;DHT22;43236;47.208;7.518;2024-01-16T04:06:31;3.50;80.00
38941;DHT22;43236;47.208;7.518;2024-01-16T04:09:20;3.40;80.00
38941;DHT22;43236;47.208;7.518;2024-01-16T04:12:07;3.40;79.90
38941;DHT22;43236;47.208;7.518;2024-01-16T04:14:54;3.40;80.00
38941;DHT22;43236;47.208;7.518;2024-01-16T04:17:41;3.40;80.00
38941;DHT22;43236;47.208;7.518;2024-01-16T04:20:29;3.40;80.00
38941;DHT22;43236;47.208;7.518;2024-01-16T04:23:20;3.40;80.00
38941;DHT22;43236;47.208;7.518;2024-01-16T04:26:07;3.30;80.20
38941;DHT22;43236;47.208;7.518;2024-01-16T04:28:54;3.30;80.60
38941;DHT22;43236;47.208;7.518;2024-01-16T04:31:41;3.30;80.30
38941;DHT22;43236;47.208;7.518;2024-01-16T04:34:28;3.20;80.20
38941;DHT22;43236;47.208;7.518;2024-01-16T04:37:15;3.20;80.00
38941;DHT22;43236;47.208;7.518;2024-01-16T04:40:04;3.20;80.40
38941;DHT22;43236;47.208;7.518;2024-01-16T04:42:52;3.20;80.30
38941;DHT22;43236;47.208;7.518;2024-01-16T04:45:39;3.20;80.10
38941;DHT22;43236;47.208;7.518;2024-01-16T04:48:26;3.20;80.20
38941;DHT22;43236;47.208;7.518;2024-01-16T04:51:13;3.20;80.20
38941;DHT22;43236;47.208;7.518;2024-01-16T04:54:00;3.30;80.00
38941;DHT22;43236;47.208;7.518;2024-01-16T04:56:48;3.30;79.90
38941;DHT22;43236;47.208;7.518;2024-01-16T04:59:35;3.30;80.20
38941;DHT22;43236;47.208;7.518;2024-01-16T05:02:22;3.30;79.90
38941;DHT22;43236;47.208;7.518;2024-01-16T05:05:11;3.30;79.80
38941;DHT22;43236;47.208;7.518;2024-01-16T05:08:00;3.30;79.80
38941;DHT22;43236;47.208;7.518;2024-01-16T05:10:47;3.30;79.70
38941;DHT22;43236;47.208;7.518;2024-01-16T05:13:36;3.30;80.10
38941;DHT22;43236;47.208;7.518;2024-01-16T05:16:23;3.20;80.10
38941;DHT22;43236;47.208;7.518;2024-01-16T05:19:10;3.20;79.90
38941;DHT22;43236;47.208;7.518;2024-01-16T05:22:00;3.10;79.80
38941;DHT22;43236;47.208;7.518;2024-01-16T05:24:47;3.10;79.90
38941;DHT22;43236;47.208;7.518;2024-01-16T05:27:34;3.00;79.40
38941;DHT22;43236;47.208;7.518;2024-01-16T05:30:22;3.00;80.00
38941;DHT22;43236;47.208;7.518;2024-01-16T05:33:10;3.00;80.30
38941;DHT22;43236;47.208;7.518;2024-01-16T05:35:57;3.00;80.30
38941;DHT22;43236;47.208;7.518;2024-01-16T05:38:44;3.10;80.30
38941;DHT22;43236;47.208;7.518;2024-01-16T05:41:32;3.00;80.40
38941;DHT22;43236;47.208;7.518;2024-01-16T05:44:20;3.00;79.90
38941;DHT22;43236;47.208;7.518;2024-01-16T05:47:08;3.00;79.80
38941;DHT22;43236;47.208;7.518;2024-01-16T05:49:56;3.00;79.90
38941;DHT22;43236;47.208;7.518;2024-01-16T05:52:43;3.00;79.90
38941;DHT22;43236;47.208;7.518;2024-01-16T05:55:30;3.00;80.00
38941;DHT22;43236;47.208;7.518;2024-01-16T05:58:18;3.00;79.80
38941;DHT22;43236;47.208;7.518;2024-01-16T06:01:05;3.00;79.60
38941;DHT22;43236;47.208;7.518;2024-01-16T06:03:53;2.90;79.30
38941;DHT22;43236;47.208;7.518;2024-01-16T06:06:40;2.90;79.70
38941;DHT22;43236;47.208;7.518;2024-01-16T06:09:33;2.90;80.00
38941;DHT22;43236;47.208;7.518;2024-01-16T06:12:20;2.90;80.00
38941;DHT22;43236;47.208;7.518;2024-01-16T06:15:08;2.90;79.80
38941;DHT22;43236;47.208;7.518;2024-01-16T06:17:57;2.90;79.50
38941;DHT22;43236;47.208;7.518;2024-01-16T06:20:45;2.90;79.30
38941;DHT22;43236;47.208;7.518;2024-01-16T06:23:32;2.80;79.20
38941;DHT22;43236;47.208;7.518;2024-01-16T06:26:19;2.70;79.10
38941;DHT22;43236;47.208;7.518;2024-01-16T06:29:06;2.80;80.00
38941;DHT22;43236;47.208;7.518;2024-01-16T06:31:53;2.80;80.00
38941;DHT22;43236;47.208;7.518;2024-01-16T06:34:40;2.80;80.00
38941;DHT22;43236;47.208;7.518;2024-01-16T06:37:28;2.80;80.10
38941;DHT22;43236;47.208;7.518;2024-01-16T06:40:19;2.80;80.00
38941;DHT22;43236;47.208;7.518;2024-01-16T06:43:06;2.90;79.90
38941;DHT22;43236;47.208;7.518;2024-01-16T06:45:54;2.80;79.60
38941;DHT22;43236;47.208;7.518;2024-01-16T06:48:41;2.90;79.90
38941;DHT22;43236;47.208;7.518;2024-01-16T06:51:28;2.80;79.80
38941;DHT22;43236;47.208;7.518;2024-01-16T06:54:16;2.80;79.70
38941;DHT22;43236;47.208;7.518;2024-01-16T06:57:06;2.80;79.80
38941;DHT22;43236;47.208;7.518;2024-01-16T06:59:53;2.80;79.50
38941;DHT22;43236;47.208;7.518;2024-01-16T07:02:40;2.80;79.50
38941;DHT22;43236;47.208;7.518;2024-01-16T07:05:29;2.80;79.70
38941;DHT22;43236;47.208;7.518;2024-01-16T07:08:18;2.80;79.90
38941;DHT22;43236;47.208;7.518;2024-01-16T07:11:07;2.80;80.10
38941;DHT22;43236;47.208;7.518;2024-01-16T07:13:58;2.80;80.10
38941;DHT22;43236;47.208;7.518;2024-01-16T07:16:45;2.70;80.00
38941;DHT22;43236;47.208;7.518;2024-01-16T07:19:32;2.80;80.10
38941;DHT22;43236;47.208;7.518;2024-01-16T07:22:19;2.70;79.80
38941;DHT22;43236;47.208;7.518;2024-01-16T07:25:07;2.80;80.00
38941;DHT22;43236;47.208;7.518;2024-01-16T07:27:55;2.70;80.00
38941;DHT22;43236;47.208;7.518;2024-01-16T07:30:42;2.70;80.20
38941;DHT22;43236;47.208;7.518;2024-01-16T07:33:30;2.70;80.40
38941;DHT22;43236;47.208;7.518;2024-01-16T07:36:17;2.70;79.90
38941;DHT22;43236;47.208;7.518;2024-01-16T07:39:04;2.70;80.20
38941;DHT22;43236;47.208;7.518;2024-01-16T07:41:51;2.80;80.50
38941;DHT22;43236;47.208;7.518;2024-01-16T07:44:39;2.80;80.30
38941;DHT22;43236;47.208;7.518;2024-01-16T07:47:26;2.80;80.00
38941;DHT22;43236;47.208;7.518;2024-01-16T07:50:13;2.90;79.60
38941;DHT22;43236;47.208;7.518;2024-01-16T07:53:00;2.90;79.60
38941;DHT22;43236;47.208;7.518;2024-01-16T07:55:47;3.00;79.60
38941;DHT22;43236;47.208;7.518;2024-01-16T07:58:34;2.90;79.60
38941;DHT22;43236;47.208;7.518;2024-01-16T08:01:23;3.00;79.80
38941;DHT22;43236;47.208;7.518;2024-01-16T08:04:10;3.10;79.50
38941;DHT22;43236;47.208;7.518;2024-01-16T08:06:57;3.10;78.90
38941;DHT22;43236;47.208;7.518;2024-01-16T08:09:45;3.10;79.20
38941;DHT22;43236;47.208;7.518;2024-01-16T08:12:32;3.20;79.40
38941;DHT22;43236;47.208;7.518;2024-01-16T08:15:19;3.20;79.20
38941;DHT22;43236;47.208;7.518;2024-01-16T08:18:07;3.20;79.10
38941;DHT22;43236;47.208;7.518;2024-01-16T08:20:54;3.20;79.80
38941;DHT22;43236;47.208;7.518;2024-01-16T08:23:41;3.20;79.20
38941;DHT22;43236;47.208;7.518;2024-01-16T08:26:28;3.30;79.90
38941;DHT22;43236;47.208;7.518;2024-01-16T08:29:15;3.30;79.80
38941;DHT22;43236;47.208;7.518;2024-01-16T08:32:03;3.40;79.20
38941;DHT22;43236;47.208;7.518;2024-01-16T08:34:51;3.40;79.20
38941;DHT22;43236;47.208;7.518;2024-01-16T08:37:38;3.40;79.30
38941;DHT22;43236;47.208;7.518;2024-01-16T08:40:25;3.40;78.50
38941;DHT22;43236;47.208;7.518;2024-01-16T08:43:12;3.40;78.60
38941;DHT22;43236;47.208;7.518;2024-01-16T08:45:59;3.40;78.20
38941;DHT22;43236;47.208;7.518;2024-01-16T08:48:46;3.40;78.50
38941;DHT22;43236;47.208;7.518;2024-01-16T08:51:34;3.50;78.50
38941;DHT22;43236;47.208;7.518;2024-01-16T08:54:21;3.50;78.60
38941;DHT22;43236;47.208;7.518;2024-01-16T08:57:09;3.50;78.50
38941;DHT22;43236;47.208;7.518;2024-01-16T08:59:56;3.60;78.50
38941;DHT22;43236;47.208;7.518;2024-01-16T09:02:43;3.60;78.50
38941;DHT22;43236;47.208;7.518;2024-01-16T09:05:30;3.70;79.20
38941;DHT22;43236;47.208;7.518;2024-01-16T09:08:18;3.70;78.60
38941;DHT22;43236;47.208;7.518;2024-01-16T09:11:05;3.80;78.20
38941;DHT22;43236;47.208;7.518;2024-01-16T09:13:52;3.80;78.20
38941;DHT22;43236;47.208;7.518;2024-01-16T09:16:40;3.80;77.60
38941;DHT22;43236;47.208;7.518;2024-01-16T09:19:28;3.80;77.70
38941;DHT22;43236;47.208;7.518;2024-01-16T09:22:15;3.80;77.80
38941;DHT22;43236;47.208;7.518;2024-01-16T09:25:04;3.80;78.10
38941;DHT22;43236;47.208;7.518;2024-01-16T09:27:51;3.80;78.00
38941;DHT22;43236;47.208;7.518;2024-01-16T09:30:39;3.80;77.90
38941;DHT22;43236;47.208;7.518;2024-01-16T09:33:26;3.80;77.80
38941;DHT22;43236;47.208;7.518;2024-01-16T09:36:13;3.90;78.00
38941;DHT22;43236;47.208;7.518;2024-01-16T09:39:00;3.90;77.90
38941;DHT22;43236;47.208;7.518;2024-01-16T09:41:48;4.00;78.30
38941;DHT22;43236;47.208;7.518;2024-01-16T09:44:35;4.00;78.10
38941;DHT22;43236;47.208;7.518;2024-01-16T09:47:23;4.10;77.70
38941;DHT22;43236;47.208;7.518;2024-01-16T09:50:11;4.20;77.50
38941;DHT22;43236;47.208;7.518;2024-01-16T09:53:02;4.20;77.50
38941;DHT22;43236;47.208;7.518;2024-01-16T09:55:50;4.20;77.70
38941;DHT22;43236;47.208;7.518;2024-01-16T09:58:40;4.30;77.40
38941;DHT22;43236;47.208;7.518;2024-01-16T10:01:28;4.30;77.20
38941;DHT22;43236;47.208;7.518;2024-01-16T10:04:16;4.30;77.70
38941;DHT22;43236;47.208;7.518;2024-01-16T10:07:04;4.40;77.70
38941;DHT22;43236;47.208;7.518;2024-01-16T10:09:52;4.40;77.10
38941;DHT22;43236;47.208;7.518;2024-01-16T10:12:39;4.40;77.70
38941;DHT22;43236;47.208;7.518;2024-01-16T10:15:28;4.50;76.70
38941;DHT22;43236;47.208;7.518;2024-01-16T10:18:22;4.50;76.40
38941;DHT22;43236;47.208;7.518;2024-01-16T10:21:20;4.50;76.10
38941;DHT22;43236;47.208;7.518;2024-01-16T10:24:11;4.60;76.90
38941;DHT22;43236;47.208;7.518;2024-01-16T10:26:59;4.70;76.40
38941;DHT22;43236;47.208;7.518;2024-01-16T10:29:55;4.80;76.10
38941;DHT22;43236;47.208;7.518;2024-01-16T10:32:44;4.80;76.00
38941;DHT22;43236;47.208;7.518;2024-01-16T10:35:32;4.70;75.70
38941;DHT22;43236;47.208;7.518;2024-01-16T10:38:20;4.60;75.40
38941;DHT22;43236;47.208;7.518;2024-01-16T10:41:09;4.60;76.30
38941;DHT22;43236;47.208;7.518;2024-01-16T10:44:03;4.50;77.10
38941;DHT22;43236;47.208;7.518;2024-01-16T10:46:51;4.50;77.00
38941;DHT22;43236;47.208;7.518;2024-01-16T10:49:39;4.50;76.20
38941;DHT22;43236;47.208;7.518;2024-01-16T10:52:27;4.50;76.00
38941;DHT22;43236;47.208;7.518;2024-01-16T10:55:19;4.40;75.60
38941;DHT22;43236;47.208;7.518;2024-01-16T10:58:09;4.40;76.60
38941;DHT22;43236;47.208;7.518;2024-01-16T11:00:57;4.50;76.90
38941;DHT22;43236;47.208;7.518;2024-01-16T11:03:47;4.50;76.90
38941;DHT22;43236;47.208;7.518;2024-01-16T11:06:36;4.60;77.20
38941;DHT22;43236;47.208;7.518;2024-01-16T11:09:24;4.70;77.40
38941;DHT22;43236;47.208;7.518;2024-01-16T11:12:12;4.60;77.10
38941;DHT22;43236;47.208;7.518;2024-01-16T11:15:03;4.70;76.80
38941;DHT22;43236;47.208;7.518;2024-01-16T11:17:53;4.80;76.80
38941;DHT22;43236;47.208;7.518;2024-01-16T11:20:42;4.70;76.60
38941;DHT22;43236;47.208;7.518;2024-01-16T11:23:31;4.80;77.80
38941;DHT22;43236;47.208;7.518;2024-01-16T11:26:26;4.80;77.80
38941;DHT22;43236;47.208;7.518;2024-01-16T11:29:35;4.70;77.10
38941;DHT22;43236;47.208;7.518;2024-01-16T11:32:36;4.70;77.90
38941;DHT22;43236;47.208;7.518;2024-01-16T11:35:31;4.70;78.40
38941;DHT22;43236;47.208;7.518;2024-01-16T11:38:19;4.80;78.20
38941;DHT22;43236;47.208;7.518;2024-01-16T11:41:08;4.80;77.30
38941;DHT22;43236;47.208;7.518;2024-01-16T11:43:58;4.80;76.50
38941;DHT22;43236;47.208;7.518;2024-01-16T11:47:00;4.80;77.30
38941;DHT22;43236;47.208;7.518;2024-01-16T11:49:49;4.90;77.70
38941;DHT22;43236;47.208;7.518;2024-01-16T11:52:40;5.00;76.20
38941;DHT22;43236;47.208;7.518;2024-01-16T11:55:29;5.10;76.60
38941;DHT22;43236;47.208;7.518;2024-01-16T11:58:41;5.20;76.20
38941;DHT22;43236;47.208;7.518;2024-01-16T12:01:29;5.20;75.60
38941;DHT22;43236;47.208;7.518;2024-01-16T12:04:17;5.30;75.70
38941;DHT22;43236;47.208;7.518;2024-01-16T12:07:06;5.30;74.90
38941;DHT22;43236;47.208;7.518;2024-01-16T12:09:59;5.40;76.20
38941;DHT22;43236;47.208;7.518;2024-01-16T12:12:47;5.40;76.30
38941;DHT22;43236;47.208;7.518;2024-01-16T12:15:35;5.40;75.80
38941;DHT22;43236;47.208;7.518;2024-01-16T12:18:22;5.50;75.40
38941;DHT22;43236;47.208;7.518;2024-01-16T12:21:10;5.50;76.30
38941;DHT22;43236;47.208;7.518;2024-01-16T12:23:58;5.60;76.70
38941;DHT22;43236;47.208;7.518;2024-01-16T12:26:45;5.70;76.50
38941;DHT22;43236;47.208;7.518;2024-01-16T12:29:32;5.80;75.20
38941;DHT22;43236;47.208;7.518;2024-01-16T12:32:21;5.80;75.80
38941;DHT22;43236;47.208;7.518;2024-01-16T12:35:08;5.80;77.40
38941;DHT22;43236;47.208;7.518;2024-01-16T12:37:59;5.90;76.60
38941;DHT22;43236;47.208;7.518;2024-01-16T12:40:51;6.00;76.90
38941;DHT22;43236;47.208;7.518;2024-01-16T12:43:39;6.00;76.50
38941;DHT22;43236;47.208;7.518;2024-01-16T12:46:26;6.00;76.30
38941;DHT22;43236;47.208;7.518;2024-01-16T12:49:15;6.00;75.30
38941;DHT22;43236;47.208;7.518;2024-01-16T12:52:16;5.90;75.40
38941;DHT22;43236;47.208;7.518;2024-01-16T12:55:04;6.00;75.90
38941;DHT22;43236;47.208;7.518;2024-01-16T12:58:12;6.00;76.00
38941;DHT22;43236;47.208;7.518;2024-01-16T13:01:23;6.00;75.80
38941;DHT22;43236;47.208;7.518;2024-01-16T13:04:10;6.00;76.10
38941;DHT22;43236;47.208;7.518;2024-01-16T13:07:02;6.00;75.50
38941;DHT22;43236;47.208;7.518;2024-01-16T13:09:49;6.00;76.20
38941;DHT22;43236;47.208;7.518;2024-01-16T13:12:36;6.10;75.80
38941;DHT22;43236;47.208;7.518;2024-01-16T13:15:23;6.10;76.40
38941;DHT22;43236;47.208;7.518;2024-01-16T13:18:20;6.10;75.90
38941;DHT22;43236;47.208;7.518;2024-01-16T13:21:08;6.10;76.30
38941;DHT22;43236;47.208;7.518;2024-01-16T13:23:57;6.10;76.50
38941;DHT22;43236;47.208;7.518;2024-01-16T13:26:45;6.20;76.50
38941;DHT22;43236;47.208;7.518;2024-01-16T13:29:32;6.20;76.20
38941;DHT22;43236;47.208;7.518;2024-01-16T13:32:21;6.30;77.20
38941;DHT22;43236;47.208;7.518;2024-01-16T13:35:08;6.30;76.10
38941;DHT22;43236;47.208;7.518;2024-01-16T13:37:58;6.20;75.60
38941;DHT22;43236;47.208;7.518;2024-01-16T13:40:47;6.20;76.30
38941;DHT22;43236;47.208;7.518;2024-01-16T13:43:36;6.20;75.80
38941;DHT22;43236;47.208;7.518;2024-01-16T13:46:23;6.10;76.30
38941;DHT22;43236;47.208;7.518;2024-01-16T13:49:10;6.10;75.60
38941;DHT22;43236;47.208;7.518;2024-01-16T13:51:57;6.00;75.70
38941;DHT22;43236;47.208;7.518;2024-01-16T13:54:45;6.00;75.40
38941;DHT22;43236;47.208;7.518;2024-01-16T13:57:33;6.00;75.80
38941;DHT22;43236;47.208;7.518;2024-01-16T14:00:22;6.00;76.20
38941;DHT22;43236;47.208;7.518;2024-01-16T14:03:09;6.00;76.80
38941;DHT22;43236;47.208;7.518;2024-01-16T14:05:56;6.00;75.80
38941;DHT22;43236;47.208;7.518;2024-01-16T14:08:43;6.00;75.50
38941;DHT22;43236;47.208;7.518;2024-01-16T14:11:30;5.90;76.30
38941;DHT22;43236;47.208;7.518;2024-01-16T14:14:18;6.00;76.70
38941;DHT22;43236;47.208;7.518;2024-01-16T14:17:07;6.00;75.90
38941;DHT22;43236;47.208;7.518;2024-01-16T14:19:54;6.00;76.10
38941;DHT22;43236;47.208;7.518;2024-01-16T14:22:41;6.00;76.40
38941;DHT22;43236;47.208;7.518;2024-01-16T14:25:28;6.10;76.90
38941;DHT22;43236;47.208;7.518;2024-01-16T14:28:17;6.20;76.70
38941;DHT22;43236;47.208;7.518;2024-01-16T14:31:08;6.20;76.30
38941;DHT22;43236;47.208;7.518;2024-01-16T14:33:55;6.20;76.00
38941;DHT22;43236;47.208;7.518;2024-01-16T14:36:42;6.30;76.70
38941;DHT22;43236;47.208;7.518;2024-01-16T14:39:30;6.50;75.10
38941;DHT22;43236;47.208;7.518;2024-01-16T14:42:17;6.50;75.70
38941;DHT22;43236;47.208;7.518;2024-01-16T14:45:05;6.40;75.90
38941;DHT22;43236;47.208;7.518;2024-01-16T14:47:54;6.40;75.90
38941;DHT22;43236;47.208;7.518;2024-01-16T14:50:41;6.30;76.10
38941;DHT22;43236;47.208;7.518;2024-01-16T14:53:28;6.30;76.50
38941;DHT22;43236;47.208;7.518;2024-01-16T14:56:16;6.20;77.30
38941;DHT22;43236;47.208;7.518;2024-01-16T14:59:05;6.10;77.10
38941;DHT22;43236;47.208;7.518;2024-01-16T15:01:52;6.10;77.70
38941;DHT22;43236;47.208;7.518;2024-01-16T15:04:42;6.10;77.70
38941;DHT22;43236;47.208;7.518;2024-01-16T15:07:29;6.00;77.60
38941;DHT22;43236;47.208;7.518;2024-01-16T15:10:16;6.00;77.90
38941;DHT22;43236;47.208;7.518;2024-01-16T15:13:03;5.90;78.30
38941;DHT22;43236;47.208;7.518;2024-01-16T15:15:50;5.90;78.10
38941;DHT22;43236;47.208;7.518;2024-01-16T15:18:39;5.80;78.20
38941;DHT22;43236;47.208;7.518;2024-01-16T15:21:28;5.80;77.20
38941;DHT22;43236;47.208;7.518;2024-01-16T15:24:15;5.70;78.10
38941;DHT22;43236;47.208;7.518;2024-01-16T15:27:07;5.70;78.90
38941;DHT22;43236;47.208;7.518;2024-01-16T15:29:54;5.70;78.90
38941;DHT22;43236;47.208;7.518;2024-01-16T15:32:43;5.60;78.70
38941;DHT22;43236;47.208;7.518;2024-01-16T15:35:31;5.60;79.60
38941;DHT22;43236;47.208;7.518;2024-01-16T15:38:19;5.50;79.70
38941;DHT22;43236;47.208;7.518;2024-01-16T15:41:06;5.50;80.00
38941;DHT22;43236;47.208;7.518;2024-01-16T15:43:53;5.40;79.70
38941;DHT22;43236;47.208;7.518;2024-01-16T15:47:00;5.40;80.00
38941;DHT22;43236;47.208;7.518;2024-01-16T15:49:47;5.40;80.00
38941;DHT22;43236;47.208;7.518;2024-01-16T15:52:35;5.40;80.10
38941;DHT22;43236;47.208;7.518;2024-01-16T15:55:23;5.40;80.40
38941;DHT22;43236;47.208;7.518;2024-01-16T15:58:10;5.40;81.00
38941;DHT22;43236;47.208;7.518;2024-01-16T16:00:57;5.50;80.80
38941;DHT22;43236;47.208;7.518;2024-01-16T16:03:44;5.50;80.30
38941;DHT22;43236;47.208;7.518;2024-01-16T16:06:33;5.50;81.00
38941;DHT22;43236;47.208;7.518;2024-01-16T16:09:21;5.40;81.50
38941;DHT22;43236;47.208;7.518;2024-01-16T16:12:10;5.50;80.50
38941;DHT22;43236;47.208;7.518;2024-01-16T16:14:57;5.50;80.10
38941;DHT22;43236;47.208;7.518;2024-01-16T16:17:44;5.50;81.20
38941;DHT22;43236;47.208;7.518;2024-01-16T16:20:31;5.50;81.20
38941;DHT22;43236;47.208;7.518;2024-01-16T16:23:19;5.50;80.70
38941;DHT22;43236;47.208;7.518;2024-01-16T16:26:06;5.50;81.40
38941;DHT22;43236;47.208;7.518;2024-01-16T16:28:57;5.50;81.40
38941;DHT22;43236;47.208;7.518;2024-01-16T16:31:45;5.50;81.20
38941;DHT22;43236;47.208;7.518;2024-01-16T16:34:32;5.40;80.90
38941;DHT22;43236;47.208;7.518;2024-01-16T16:37:19;5.40;81.30
38941;DHT22;43236;47.208;7.518;2024-01-16T16:40:07;5.40;81.30
38941;DHT22;43236;47.208;7.518;2024-01-16T16:42:55;5.40;81.80
38941;DHT22;43236;47.208;7.518;2024-01-16T16:45:44;5.40;82.00
38941;DHT22;43236;47.208;7.518;2024-01-16T16:48:31;5.50;81.90
38941;DHT22;43236;47.208;7.518;2024-01-16T16:51:19;5.40;81.80
38941;DHT22;43236;47.208;7.518;2024-01-16T16:54:07;5.40;82.00
38941;DHT22;43236;47.208;7.518;2024-01-16T16:56:54;5.40;82.10
38941;DHT22;43236;47.208;7.518;2024-01-16T16:59:42;5.40;82.40
38941;DHT22;43236;47.208;7.518;2024-01-16T17:02:30;5.40;82.30
38941;DHT22;43236;47.208;7.518;2024-01-16T17:05:17;5.40;82.30
38941;DHT22;43236;47.208;7.518;2024-01-16T17:08:05;5.40;82.70
38941;DHT22;43236;47.208;7.518;2024-01-16T17:10:52;5.30;82.90
38941;DHT22;43236;47.208;7.518;2024-01-16T17:13:41;5.30;82.90
38941;DHT22;43236;47.208;7.518;2024-01-16T17:16:28;5.30;82.90
38941;DHT22;43236;47.208;7.518;2024-01-16T17:19:16;5.30;82.90
38941;DHT22;43236;47.208;7.518;2024-01-16T17:22:04;5.30;82.90
38941;DHT22;43236;47.208;7.518;2024-01-16T17:24:52;5.30;83.70
38941;DHT22;43236;47.208;7.518;2024-01-16T17:27:39;5.30;82.10
38941;DHT22;43236;47.208;7.518;2024-01-16T17:30:26;5.40;82.80
38941;DHT22;43236;47.208;7.518;2024-01-16T17:33:13;5.30;82.90
38941;DHT22;43236;47.208;7.518;2024-01-16T17:36:02;5.30;82.70
38941;DHT22;43236;47.208;7.518;2024-01-16T17:38:53;5.30;82.20
38941;DHT22;43236;47.208;7.518;2024-01-16T17:41:44;5.30;82.20
38941;DHT22;43236;47.208;7.518;2024-01-16T17:44:32;5.30;82.30
38941;DHT22;43236;47.208;7.518;2024-01-16T17:47:23;5.30;82.40
38941;DHT22;43236;47.208;7.518;2024-01-16T17:50:11;5.30;82.80
38941;DHT22;43236;47.208;7.518;2024-01-16T17:52:59;5.30;82.80
38941;DHT22;43236;47.208;7.518;2024-01-16T17:55:50;5.30;82.00
38941;DHT22;43236;47.208;7.518;2024-01-16T17:58:37;5.40;82.20